createdAt,value
2023-05-24T00:00:16.122Z,100.00
2023-05-24T00:03:07.170Z,100.00
2023-05-24T00:05:55.060Z,100.00
2023-05-24T00:08:42.790Z,100.00
2023-05-24T00:11:30.982Z,100.00
2023-05-24T00:14:18.701Z,100.00
2023-05-24T00:17:06.665Z,100.00
2023-05-24T00:19:55.720Z,100.00
2023-05-24T00:22:43.548Z,100.00
2023-05-24T00:25:31.299Z,100.00
2023-05-24T00:28:19.189Z,100.00
2023-05-24T00:31:08.373Z,100.00
2023-05-24T00:33:56.355Z,100.00
2023-05-24T00:36:45.483Z,100.00
2023-05-24T00:39:33.208Z,100.00
2023-05-24T00:42:20.891Z,100.00
2023-05-24T00:45:09.727Z,100.00
2023-05-24T00:47:57.577Z,100.00
2023-05-24T00:50:45.273Z,100.00
2023-05-24T00:53:36.687Z,100.00
2023-05-24T00:56:24.540Z,100.00
2023-05-24T00:59:12.529Z,100.00
2023-05-24T01:02:00.493Z,100.00
2023-05-24T01:04:49.149Z,100.00
2023-05-24T01:07:47.303Z,100.00
2023-05-24T01:10:47.786Z,100.00
2023-05-24T01:13:47.575Z,100.00
2023-05-24T01:16:47.106Z,100.00
2023-05-24T01:19:53.801Z,100.00
2023-05-24T01:23:07.360Z,100.00
2023-05-24T01:26:29.428Z,100.00
2023-05-24T01:29:19.339Z,100.00
2023-05-24T01:32:08.493Z,100.00
2023-05-24T01:34:56.167Z,100.00
2023-05-24T01:37:43.869Z,100.00
2023-05-24T01:40:31.711Z,100.00
2023-05-24T01:43:28.420Z,100.00
2023-05-24T01:46:23.924Z,100.00
2023-05-24T01:49:20.517Z,100.00
2023-05-24T01:52:13.999Z,100.00
2023-05-24T01:55:04.209Z,100.00
2023-05-24T01:57:52.877Z,100.00
2023-05-24T02:00:41.945Z,100.00
2023-05-24T02:03:32.375Z,100.00
2023-05-24T02:06:20.202Z,100.00
2023-05-24T02:09:07.882Z,100.00
2023-05-24T02:11:55.621Z,100.00
2023-05-24T02:14:43.321Z,100.00
2023-05-24T02:17:33.073Z,100.00
2023-05-24T02:20:22.696Z,100.00
2023-05-24T02:23:10.568Z,100.00
2023-05-24T02:25:58.370Z,100.00
2023-05-24T02:28:46.210Z,100.00
2023-05-24T02:31:34.232Z,100.00
2023-05-24T02:34:23.286Z,100.00
2023-05-24T02:37:15.080Z,100.00
2023-05-24T02:40:02.826Z,100.00
2023-05-24T02:42:50.689Z,100.00
2023-05-24T02:45:38.413Z,100.00
2023-05-24T02:48:26.075Z,100.00
2023-05-24T02:51:14.022Z,100.00
2023-05-24T02:54:03.140Z,100.00
2023-05-24T02:56:50.935Z,100.00
2023-05-24T02:59:38.627Z,100.00
2023-05-24T03:02:28.704Z,100.00
2023-05-24T03:05:16.707Z,100.00
2023-05-24T03:08:04.526Z,100.00
2023-05-24T03:10:53.631Z,100.00
2023-05-24T03:13:41.398Z,100.00
2023-05-24T03:16:29.574Z,100.00
2023-05-24T03:19:18.544Z,100.00
2023-05-24T03:22:06.307Z,100.00
2023-05-24T03:24:53.977Z,100.00
2023-05-24T03:27:43.127Z,100.00
2023-05-24T03:30:30.965Z,100.00
2023-05-24T03:33:18.712Z,100.00
2023-05-24T03:36:07.879Z,100.00
2023-05-24T03:38:58.322Z,100.00
2023-05-24T03:41:46.269Z,100.00
2023-05-24T03:44:35.316Z,100.00
2023-05-24T03:47:23.128Z,100.00
2023-05-24T03:50:11.818Z,100.00
2023-05-24T03:52:59.593Z,100.00
2023-05-24T03:55:47.624Z,100.00
2023-05-24T03:58:35.301Z,100.00
2023-05-24T04:01:33.401Z,100.00
2023-05-24T04:04:22.677Z,100.00
2023-05-24T04:07:12.068Z,100.00
2023-05-24T04:09:59.861Z,100.00
2023-05-24T04:12:47.758Z,100.00
2023-05-24T04:15:36.005Z,100.00
2023-05-24T04:18:25.358Z,100.00
2023-05-24T04:21:13.153Z,100.00
2023-05-24T04:24:01.764Z,100.00
2023-05-24T04:26:49.535Z,100.00
2023-05-24T04:29:37.383Z,100.00
2023-05-24T04:32:26.253Z,100.00
2023-05-24T04:35:15.653Z,100.00
2023-05-24T04:38:03.545Z,100.00
2023-05-24T04:40:51.271Z,100.00
2023-05-24T04:43:39.421Z,100.00
2023-05-24T04:46:27.373Z,100.00
2023-05-24T04:49:15.295Z,100.00
2023-05-24T04:52:04.644Z,100.00
2023-05-24T04:54:52.910Z,100.00
2023-05-24T04:57:40.770Z,100.00
2023-05-24T05:00:28.555Z,100.00
2023-05-24T05:03:16.480Z,100.00
2023-05-24T05:06:04.317Z,100.00
2023-05-24T05:08:53.528Z,100.00
2023-05-24T05:11:41.631Z,100.00
2023-05-24T05:14:29.262Z,100.00
2023-05-24T05:17:17.254Z,100.00
2023-05-24T05:20:07.165Z,100.00
2023-05-24T05:22:54.876Z,100.00
2023-05-24T05:25:44.013Z,100.00
2023-05-24T05:28:31.764Z,100.00
2023-05-24T05:31:19.553Z,100.00
2023-05-24T05:34:09.764Z,100.00
2023-05-24T05:36:57.484Z,100.00
2023-05-24T05:39:45.258Z,100.00
2023-05-24T05:42:34.360Z,100.00
2023-05-24T05:45:22.261Z,100.00
2023-05-24T05:48:10.081Z,100.00
2023-05-24T05:50:57.861Z,100.00
2023-05-24T05:53:47.004Z,100.00
2023-05-24T05:56:39.380Z,100.00
2023-05-24T05:59:28.634Z,100.00
2023-05-24T06:02:16.335Z,100.00
2023-05-24T06:05:04.224Z,100.00
2023-05-24T06:07:51.934Z,100.00
2023-05-24T06:10:39.680Z,100.00
2023-05-24T06:13:28.315Z,100.00
2023-05-24T06:16:18.458Z,100.00
2023-05-24T06:19:06.730Z,99.66
2023-05-24T06:21:54.724Z,100.00
2023-05-24T06:24:44.980Z,98.14
2023-05-24T06:27:32.729Z,95.91
2023-05-24T06:30:20.729Z,96.68
2023-05-24T06:33:09.742Z,95.47
2023-05-24T06:35:57.486Z,95.76
2023-05-24T06:38:45.449Z,96.06
2023-05-24T06:41:33.338Z,94.06
2023-05-24T06:44:25.120Z,93.60
2023-05-24T06:47:13.179Z,94.30
2023-05-24T06:50:04.135Z,93.14
2023-05-24T06:52:51.838Z,94.46
2023-05-24T06:55:39.627Z,95.24
2023-05-24T06:58:27.308Z,94.71
2023-05-24T07:01:15.485Z,93.41
2023-05-24T07:04:03.214Z,93.76
2023-05-24T07:06:53.133Z,93.51
2023-05-24T07:09:42.274Z,90.75
2023-05-24T07:12:30.054Z,91.54
2023-05-24T07:15:17.851Z,90.33
2023-05-24T07:18:05.854Z,90.16
2023-05-24T07:20:55.028Z,90.03
2023-05-24T07:23:44.261Z,85.53
2023-05-24T07:26:32.043Z,86.77
2023-05-24T07:29:19.765Z,86.96
2023-05-24T07:32:07.913Z,85.97
2023-05-24T07:34:56.019Z,87.23
2023-05-24T07:37:43.752Z,86.64
2023-05-24T07:40:32.852Z,84.91
2023-05-24T07:43:20.618Z,84.82
2023-05-24T07:46:08.343Z,83.21
2023-05-24T07:48:56.289Z,80.58
2023-05-24T07:51:44.157Z,81.41
2023-05-24T07:54:31.840Z,83.64
2023-05-24T07:57:21.156Z,83.27
2023-05-24T08:00:14.639Z,82.18
2023-05-24T08:03:03.354Z,81.86
2023-05-24T08:05:51.603Z,80.37
2023-05-24T08:08:40.310Z,80.53
2023-05-24T08:11:28.047Z,79.59
2023-05-24T08:14:17.221Z,80.58
2023-05-24T08:17:05.303Z,80.57
2023-05-24T08:19:52.974Z,79.04
2023-05-24T08:22:41.031Z,78.13
2023-05-24T08:25:28.757Z,79.30
2023-05-24T08:28:17.110Z,76.98
2023-05-24T08:31:06.376Z,78.87
2023-05-24T08:33:55.081Z,79.19
2023-05-24T08:36:44.009Z,78.04
2023-05-24T08:39:33.632Z,76.22
2023-05-24T08:42:22.636Z,77.06
2023-05-24T08:45:13.286Z,77.14
2023-05-24T08:48:03.634Z,79.32
2023-05-24T08:50:51.710Z,75.85
2023-05-24T08:53:42.090Z,76.70
2023-05-24T08:56:30.069Z,76.46
2023-05-24T08:59:18.211Z,77.00
2023-05-24T09:02:06.788Z,75.42
2023-05-24T09:04:57.252Z,75.76
2023-05-24T09:07:46.685Z,74.91
2023-05-24T09:10:49.588Z,74.11
2023-05-24T09:13:42.640Z,73.42
2023-05-24T09:16:30.661Z,74.43
2023-05-24T09:19:18.776Z,72.36
2023-05-24T09:22:08.182Z,73.79
2023-05-24T09:24:59.818Z,69.75
2023-05-24T09:27:51.761Z,70.50
2023-05-24T09:30:39.444Z,72.45
2023-05-24T09:33:31.054Z,73.60
2023-05-24T09:36:18.784Z,73.81
2023-05-24T09:39:11.813Z,72.06
2023-05-24T09:41:59.524Z,70.75
2023-05-24T09:44:47.399Z,68.83
2023-05-24T09:47:36.277Z,70.13
2023-05-24T09:50:23.996Z,70.62
2023-05-24T09:53:11.766Z,70.01
2023-05-24T09:56:01.909Z,67.95
2023-05-24T09:58:50.027Z,67.34
2023-05-24T10:01:38.319Z,68.43
2023-05-24T10:04:34.340Z,69.07
2023-05-24T10:07:22.638Z,69.00
2023-05-24T10:10:11.934Z,66.93
2023-05-24T10:13:02.675Z,68.29
2023-05-24T10:15:50.492Z,68.58
2023-05-24T10:18:38.409Z,67.24
2023-05-24T10:21:27.778Z,66.14
2023-05-24T10:24:20.482Z,64.08
2023-05-24T10:27:14.173Z,64.36
2023-05-24T10:30:14.253Z,65.29
2023-05-24T10:33:04.992Z,67.80
2023-05-24T10:35:53.951Z,64.59
2023-05-24T10:38:42.220Z,64.77
2023-05-24T10:41:30.461Z,64.62
2023-05-24T10:44:20.487Z,63.57
2023-05-24T10:47:14.049Z,62.55
2023-05-24T10:50:18.684Z,63.24
2023-05-24T10:53:13.851Z,64.36
2023-05-24T10:56:04.228Z,62.49
2023-05-24T10:59:02.447Z,62.65
2023-05-24T11:01:57.657Z,60.00
2023-05-24T11:04:49.583Z,60.65
2023-05-24T11:07:43.095Z,59.73
2023-05-24T11:10:34.356Z,60.62
2023-05-24T11:13:22.254Z,58.72
2023-05-24T11:16:10.629Z,62.18
2023-05-24T11:18:58.394Z,59.19
2023-05-24T11:21:49.163Z,61.42
2023-05-24T11:24:37.115Z,60.89
2023-05-24T11:27:25.679Z,60.80
2023-05-24T11:30:13.967Z,62.27
2023-05-24T11:33:02.830Z,63.16
2023-05-24T11:35:52.175Z,60.28
2023-05-24T11:38:41.431Z,59.55
2023-05-24T11:41:29.878Z,60.62
2023-05-24T11:44:20.075Z,61.66
2023-05-24T11:47:08.953Z,64.27
2023-05-24T11:49:56.686Z,60.88
2023-05-24T11:52:44.381Z,59.97
2023-05-24T11:55:33.540Z,59.09
2023-05-24T11:58:25.138Z,59.60
2023-05-24T12:01:25.146Z,60.14
2023-05-24T12:04:13.446Z,59.73
2023-05-24T12:07:01.720Z,66.07
2023-05-24T12:09:49.444Z,58.37
2023-05-24T12:12:46.238Z,57.47
2023-05-24T12:15:36.771Z,58.58
2023-05-24T12:18:26.615Z,58.69
2023-05-24T12:21:14.336Z,62.59
2023-05-24T12:24:12.550Z,60.83
2023-05-24T12:27:03.283Z,59.45
2023-05-24T12:29:52.550Z,58.94
2023-05-24T12:32:40.849Z,60.28
2023-05-24T12:35:28.614Z,56.90
2023-05-24T12:38:23.020Z,56.53
2023-05-24T12:41:13.519Z,60.37
2023-05-24T12:44:01.776Z,59.27
2023-05-24T12:46:53.165Z,57.01
2023-05-24T12:49:40.918Z,56.54
2023-05-24T12:52:28.586Z,55.76
2023-05-24T12:55:16.658Z,57.47
2023-05-24T12:58:06.476Z,59.40
2023-05-24T13:00:54.443Z,60.77
2023-05-24T13:03:43.809Z,61.51
2023-05-24T13:06:31.659Z,61.10
2023-05-24T13:09:21.649Z,62.62
2023-05-24T13:12:10.840Z,62.70
2023-05-24T13:14:58.623Z,61.80
2023-05-24T13:17:47.545Z,66.90
2023-05-24T13:20:36.731Z,65.79
2023-05-24T13:23:24.670Z,65.47
2023-05-24T13:26:13.108Z,71.29
2023-05-24T13:31:51.829Z,83.37
2023-05-24T13:34:39.564Z,86.85
2023-05-24T13:37:28.966Z,92.19
2023-05-24T13:40:16.660Z,88.93
2023-05-24T13:43:04.610Z,96.33
2023-05-24T13:45:52.483Z,99.62
2023-05-24T13:48:40.323Z,100.00
2023-05-24T13:51:28.225Z,100.00
2023-05-24T13:54:17.625Z,96.00
2023-05-24T13:57:06.751Z,100.00
2023-05-24T13:59:54.436Z,97.65
2023-05-24T14:02:43.355Z,93.22
2023-05-24T14:05:31.368Z,93.61
2023-05-24T14:08:19.207Z,100.00
2023-05-24T14:11:08.362Z,100.00
2023-05-24T14:14:47.592Z,93.67
2023-05-24T14:17:04.058Z,100.00
2023-05-24T14:19:51.849Z,100.00
2023-05-24T14:22:39.679Z,100.00
2023-05-24T14:25:27.388Z,100.00
2023-05-24T14:28:16.494Z,100.00
2023-05-24T14:31:06.144Z,100.00
2023-05-24T14:33:53.902Z,98.68
2023-05-24T14:36:41.930Z,95.84
2023-05-24T14:39:29.966Z,93.07
2023-05-24T14:42:17.745Z,93.18
2023-05-24T14:45:08.173Z,88.48
2023-05-24T14:47:55.880Z,87.67
2023-05-24T14:50:43.804Z,87.50
2023-05-24T14:53:31.464Z,85.89
2023-05-24T14:56:19.268Z,84.56
2023-05-24T14:59:06.959Z,83.15
2023-05-24T15:01:56.362Z,82.96
2023-05-24T15:04:44.038Z,81.97
2023-05-24T15:07:31.903Z,80.73
2023-05-24T15:10:19.612Z,80.04
2023-05-24T15:13:08.222Z,82.07
2023-05-24T15:15:57.765Z,81.72
2023-05-24T15:18:46.941Z,80.38
2023-05-24T15:21:34.561Z,81.91
2023-05-24T15:24:22.280Z,80.03
2023-05-24T15:27:10.753Z,77.48
2023-05-24T15:29:59.186Z,77.69
2023-05-24T15:32:46.981Z,77.02
2023-05-24T15:35:36.442Z,76.39
2023-05-24T15:38:24.734Z,76.86
2023-05-24T15:41:12.525Z,76.94
2023-05-24T15:44:00.982Z,74.58
2023-05-24T15:46:48.785Z,72.81
2023-05-24T15:49:36.778Z,75.93
2023-05-24T15:52:26.202Z,78.75
2023-05-24T15:55:14.057Z,79.96
2023-05-24T15:58:01.767Z,78.64
2023-05-24T16:00:51.118Z,78.55
2023-05-24T16:03:38.968Z,79.40
2023-05-24T16:06:26.796Z,80.32
2023-05-24T16:09:16.151Z,80.81
2023-05-24T16:12:04.005Z,81.96
2023-05-24T16:14:52.265Z,81.90
2023-05-24T16:17:40.036Z,81.52
2023-05-24T16:20:27.841Z,81.65
2023-05-24T16:23:15.580Z,83.03
2023-05-24T16:26:04.726Z,82.42
2023-05-24T16:28:52.401Z,81.54
2023-05-24T16:31:40.220Z,81.71
2023-05-24T16:34:27.938Z,81.56
2023-05-24T16:37:15.801Z,83.35
2023-05-24T16:40:03.873Z,82.32
2023-05-24T16:42:54.466Z,77.76
2023-05-24T16:45:42.230Z,73.32
2023-05-24T16:48:31.582Z,79.61
2023-05-24T16:51:19.546Z,76.81
2023-05-24T16:54:08.966Z,73.89
2023-05-24T16:56:56.813Z,79.06
2023-05-24T16:59:45.928Z,78.21
2023-05-24T17:02:34.437Z,75.29
2023-05-24T17:05:22.268Z,79.80
2023-05-24T17:08:10.030Z,80.38
2023-05-24T17:10:58.984Z,76.05
2023-05-24T17:13:47.296Z,77.90
2023-05-24T17:16:36.945Z,78.01
2023-05-24T17:19:25.386Z,78.41
2023-05-24T17:22:13.082Z,80.99
2023-05-24T17:25:00.801Z,77.30
2023-05-24T17:27:48.581Z,78.26
2023-05-24T17:30:36.689Z,78.83
2023-05-24T17:33:27.307Z,76.49
2023-05-24T17:36:15.107Z,77.36
2023-05-24T17:39:04.794Z,78.55
2023-05-24T17:41:52.550Z,81.61
2023-05-24T17:44:40.566Z,84.77
2023-05-24T17:47:28.981Z,81.41
2023-05-24T17:50:18.693Z,80.03
2023-05-24T17:53:18.986Z,81.75
2023-05-24T17:56:13.024Z,82.17
2023-05-24T17:59:03.080Z,84.78
2023-05-24T18:01:51.185Z,81.54
2023-05-24T18:04:39.546Z,85.81
2023-05-24T18:07:30.698Z,89.61
2023-05-24T18:10:19.605Z,87.31
2023-05-24T18:13:11.812Z,88.64
2023-05-24T18:16:11.608Z,89.73
2023-05-24T18:19:00.784Z,91.51
2023-05-24T18:21:48.888Z,94.35
2023-05-24T18:24:37.965Z,90.90
2023-05-24T18:27:26.794Z,86.28
2023-05-24T18:30:15.167Z,86.44
2023-05-24T18:33:07.812Z,92.15
2023-05-24T18:35:56.330Z,92.37
2023-05-24T18:38:47.264Z,91.59
2023-05-24T18:41:36.715Z,95.90
2023-05-24T18:44:24.434Z,97.70
2023-05-24T18:47:12.369Z,95.79
2023-05-24T18:50:00.501Z,93.11
2023-05-24T18:52:48.241Z,94.92
2023-05-24T18:55:35.942Z,94.39
2023-05-24T18:58:25.034Z,94.79
2023-05-24T19:01:13.676Z,94.48
2023-05-24T19:04:01.401Z,98.39
2023-05-24T19:06:49.292Z,93.11
2023-05-24T19:09:36.981Z,97.08
2023-05-24T19:12:25.501Z,99.63
2023-05-24T19:15:14.740Z,99.83
2023-05-24T19:18:02.434Z,99.45
2023-05-24T19:20:50.407Z,100.00
2023-05-24T19:23:38.158Z,100.00
2023-05-24T19:26:26.742Z,100.00
2023-05-24T19:29:14.873Z,100.00
2023-05-24T19:32:04.187Z,100.00
2023-05-24T19:34:52.234Z,97.62
2023-05-24T19:37:40.026Z,97.06
2023-05-24T19:40:27.917Z,92.31
2023-05-24T19:43:15.579Z,92.83
2023-05-24T19:46:05.733Z,97.95
2023-05-24T19:48:55.000Z,100.00
2023-05-24T19:51:42.621Z,100.00
2023-05-24T19:54:30.334Z,100.00
2023-05-24T19:57:18.159Z,100.00
2023-05-24T20:00:07.206Z,100.00
2023-05-24T20:02:54.904Z,100.00
2023-05-24T20:05:46.973Z,100.00
2023-05-24T20:08:34.654Z,100.00
2023-05-24T20:11:22.366Z,100.00
2023-05-24T20:14:10.140Z,100.00
2023-05-24T20:16:57.940Z,100.00
2023-05-24T20:19:46.583Z,100.00
2023-05-24T20:22:35.562Z,100.00
2023-05-24T20:25:23.326Z,100.00
2023-05-24T20:28:25.752Z,100.00
2023-05-24T20:31:17.923Z,100.00
2023-05-24T20:34:05.859Z,100.00
2023-05-24T20:36:53.958Z,100.00
2023-05-24T20:39:43.046Z,100.00
2023-05-24T20:42:31.872Z,100.00
2023-05-24T20:45:20.152Z,100.00
2023-05-24T20:48:08.398Z,100.00
2023-05-24T20:50:56.120Z,100.00
2023-05-24T20:53:45.720Z,100.00
2023-05-24T20:56:35.023Z,100.00
2023-05-24T20:59:22.717Z,100.00
2023-05-24T21:02:10.673Z,100.00
2023-05-24T21:04:58.613Z,100.00
2023-05-24T21:07:46.501Z,100.00
2023-05-24T21:10:34.334Z,100.00
2023-05-24T21:13:25.558Z,100.00
2023-05-24T21:16:13.673Z,100.00
2023-05-24T21:19:02.025Z,100.00
2023-05-24T21:21:49.862Z,100.00
2023-05-24T21:24:37.542Z,100.00
2023-05-24T21:27:26.441Z,100.00
2023-05-24T21:30:16.466Z,100.00
2023-05-24T21:33:04.318Z,100.00
2023-05-24T21:35:52.390Z,100.00
2023-05-24T21:38:40.092Z,100.00
2023-05-24T21:41:28.691Z,100.00
2023-05-24T21:44:16.494Z,100.00
2023-05-24T21:47:06.205Z,100.00
2023-05-24T21:49:54.967Z,100.00
2023-05-24T21:52:42.642Z,100.00
2023-05-24T21:55:31.145Z,100.00
2023-05-24T21:58:18.976Z,100.00
2023-05-24T22:01:08.658Z,100.00
2023-05-24T22:03:57.916Z,100.00
2023-05-24T22:06:46.193Z,100.00
2023-05-24T22:09:34.180Z,100.00
2023-05-24T22:12:21.940Z,100.00
2023-05-24T22:15:10.561Z,100.00
2023-05-24T22:17:58.718Z,100.00
2023-05-24T22:20:48.492Z,100.00
2023-05-24T22:23:36.676Z,100.00
2023-05-24T22:26:24.407Z,100.00
2023-05-24T22:29:12.488Z,100.00
2023-05-24T22:32:00.231Z,100.00
2023-05-24T22:34:48.269Z,100.00
2023-05-24T22:37:37.911Z,100.00
2023-05-24T22:40:25.746Z,100.00
2023-05-24T22:43:13.594Z,100.00
2023-05-24T22:46:01.516Z,100.00
2023-05-24T22:48:52.238Z,100.00
2023-05-24T22:51:44.524Z,100.00
2023-05-24T22:54:33.725Z,100.00
2023-05-24T22:57:23.007Z,100.00
2023-05-24T23:00:12.129Z,100.00
2023-05-24T23:03:00.002Z,100.00
2023-05-24T23:05:47.716Z,100.00
2023-05-24T23:08:35.871Z,100.00
2023-05-24T23:11:26.424Z,100.00
2023-05-24T23:14:14.382Z,100.00
2023-05-24T23:17:02.809Z,100.00
2023-05-24T23:19:51.147Z,100.00
2023-05-24T23:22:39.123Z,100.00
2023-05-24T23:25:26.906Z,100.00
2023-05-24T23:28:15.947Z,100.00
2023-05-24T23:31:03.730Z,100.00
2023-05-24T23:33:52.235Z,100.00
2023-05-24T23:36:40.217Z,100.00
2023-05-24T23:39:28.067Z,100.00
2023-05-24T23:42:16.102Z,100.00
2023-05-24T23:45:05.877Z,100.00
2023-05-24T23:47:53.749Z,100.00
2023-05-24T23:50:53.003Z,100.00
2023-05-24T23:53:41.469Z,100.00
2023-05-24T23:56:29.261Z,100.00
2023-05-24T23:59:17.426Z,100.00
